sensor_id;sensor_type;location;lat;lon;timestamp;pressure;altitude;pressure_sealevel;temperature;humidity
54806;BME280;62866;55.776;37.496;2022-10-16T00:01:57;101046.47;;;5.20;72.00
54806;BME280;62866;55.776;37.496;2022-10-16T00:04:23;101041.31;;;5.18;72.03
54806;BME280;62866;55.776;37.496;2022-10-16T00:06:48;101054.56;;;5.18;72.79
54806;BME280;62866;55.776;37.496;2022-10-16T00:09:14;101048.53;;;5.16;72.37
54806;BME280;62866;55.776;37.496;2022-10-16T00:11:40;101059.03;;;5.18;72.66
54806;BME280;62866;55.776;37.496;2022-10-16T00:14:13;101057.22;;;5.18;72.35
54806;BME280;62866;55.776;37.496;2022-10-16T00:16:39;101051.94;;;5.07;72.72
54806;BME280;62866;55.776;37.496;2022-10-16T00:19:05;101056.84;;;5.12;72.93
54806;BME280;62866;55.776;37.496;2022-10-16T00:21:31;101059.75;;;5.09;72.79
54806;BME280;62866;55.776;37.496;2022-10-16T00:24:03;101069.63;;;5.07;72.91
54806;BME280;62866;55.776;37.496;2022-10-16T00:26:31;101064.34;;;5.07;72.86
54806;BME280;62866;55.776;37.496;2022-10-16T00:28:57;101060.00;;;5.06;72.97
54806;BME280;62866;55.776;37.496;2022-10-16T00:31:23;101066.16;;;5.06;73.17
54806;BME280;62866;55.776;37.496;2022-10-16T00:33:49;101072.41;;;5.05;73.22
54806;BME280;62866;55.776;37.496;2022-10-16T00:36:18;101071.44;;;5.06;72.92
54806;BME280;62866;55.776;37.496;2022-10-16T00:38:44;101068.06;;;5.04;72.91
54806;BME280;62866;55.776;37.496;2022-10-16T00:41:13;101078.56;;;5.06;72.92
54806;BME280;62866;55.776;37.496;2022-10-16T00:43:48;101072.63;;;5.02;72.70
54806;BME280;62866;55.776;37.496;2022-10-16T00:48:47;101072.06;;;4.99;73.02
54806;BME280;62866;55.776;37.496;2022-10-16T00:51:14;101069.41;;;4.99;73.77
54806;BME280;62866;55.776;37.496;2022-10-16T00:53:40;101080.97;;;4.97;73.15
54806;BME280;62866;55.776;37.496;2022-10-16T00:56:06;101079.28;;;4.96;73.41
54806;BME280;62866;55.776;37.496;2022-10-16T00:58:32;101082.31;;;4.92;73.67
54806;BME280;62866;55.776;37.496;2022-10-16T01:00:57;101086.75;;;4.91;73.35
54806;BME280;62866;55.776;37.496;2022-10-16T01:03:34;101078.31;;;4.86;73.31
54806;BME280;62866;55.776;37.496;2022-10-16T01:09:13;101087.72;;;4.90;72.64
54806;BME280;62866;55.776;37.496;2022-10-16T01:12:01;101084.94;;;4.92;73.06
54806;BME280;62866;55.776;37.496;2022-10-16T01:14:54;101071.06;;;4.77;73.15
54806;BME280;62866;55.776;37.496;2022-10-16T01:17:31;101087.00;;;4.88;73.36
54806;BME280;62866;55.776;37.496;2022-10-16T01:28:06;101097.13;;;4.83;73.47
54806;BME280;62866;55.776;37.496;2022-10-16T01:30:35;101098.06;;;4.82;73.49
54806;BME280;62866;55.776;37.496;2022-10-16T01:33:27;101093.13;;;4.78;72.87
54806;BME280;62866;55.776;37.496;2022-10-16T01:36:03;101100.22;;;4.77;73.13
54806;BME280;62866;55.776;37.496;2022-10-16T01:38:37;101104.81;;;4.75;73.55
54806;BME280;62866;55.776;37.496;2022-10-16T01:41:27;101106.75;;;4.73;73.65
54806;BME280;62866;55.776;37.496;2022-10-16T01:46:24;101100.81;;;4.70;73.65
54806;BME280;62866;55.776;37.496;2022-10-16T01:48:52;101096.97;;;4.63;73.94
54806;BME280;62866;55.776;37.496;2022-10-16T01:51:19;101107.06;;;4.69;73.93
54806;BME280;62866;55.776;37.496;2022-10-16T01:53:49;101099.28;;;4.67;74.29
54806;BME280;62866;55.776;37.496;2022-10-16T01:56:17;101101.19;;;4.65;74.14
54806;BME280;62866;55.776;37.496;2022-10-16T01:58:50;101102.16;;;4.64;74.08
54806;BME280;62866;55.776;37.496;2022-10-16T02:01:19;101102.38;;;4.61;74.07
54806;BME280;62866;55.776;37.496;2022-10-16T02:03:51;101108.66;;;4.60;74.32
54806;BME280;62866;55.776;37.496;2022-10-16T02:06:17;101111.41;;;4.58;73.92
54806;BME280;62866;55.776;37.496;2022-10-16T02:08:43;101100.56;;;4.50;74.53
54806;BME280;62866;55.776;37.496;2022-10-16T02:11:09;101106.56;;;4.52;73.79
54806;BME280;62866;55.776;37.496;2022-10-16T02:16:45;101101.75;;;4.46;74.06
54806;BME280;62866;55.776;37.496;2022-10-16T02:19:12;101106.94;;;4.48;74.74
54806;BME280;62866;55.776;37.496;2022-10-16T02:21:44;101105.34;;;4.45;75.03
54806;BME280;62866;55.776;37.496;2022-10-16T02:27:13;101111.13;;;4.39;74.37
54806;BME280;62866;55.776;37.496;2022-10-16T02:29:50;101106.91;;;4.37;74.73
54806;BME280;62866;55.776;37.496;2022-10-16T02:32:21;101108.69;;;4.36;74.77
54806;BME280;62866;55.776;37.496;2022-10-16T02:34:49;101117.75;;;4.34;74.82
54806;BME280;62866;55.776;37.496;2022-10-16T02:37:17;101111.72;;;4.32;74.83
54806;BME280;62866;55.776;37.496;2022-10-16T02:39:44;101114.47;;;4.30;74.82
54806;BME280;62866;55.776;37.496;2022-10-16T02:42:11;101121.81;;;4.27;74.50
54806;BME280;62866;55.776;37.496;2022-10-16T02:44:37;101122.78;;;4.26;75.57
54806;BME280;62866;55.776;37.496;2022-10-16T02:47:02;101112.53;;;4.21;75.03
54806;BME280;62866;55.776;37.496;2022-10-16T02:49:28;101113.47;;;4.20;75.14
54806;BME280;62866;55.776;37.496;2022-10-16T02:51:53;101113.00;;;4.15;75.61
54806;BME280;62866;55.776;37.496;2022-10-16T02:54:19;101124.16;;;4.18;75.07
54806;BME280;62866;55.776;37.496;2022-10-16T02:56:45;101122.63;;;4.16;75.46
54806;BME280;62866;55.776;37.496;2022-10-16T02:59:10;101127.06;;;4.15;75.50
54806;BME280;62866;55.776;37.496;2022-10-16T03:01:36;101127.19;;;4.14;75.00
54806;BME280;62866;55.776;37.496;2022-10-16T03:04:01;101123.09;;;4.10;75.52
54806;BME280;62866;55.776;37.496;2022-10-16T03:06:27;101128.50;;;4.08;75.29
54806;BME280;62866;55.776;37.496;2022-10-16T03:08:52;101140.13;;;4.06;75.51
54806;BME280;62866;55.776;37.496;2022-10-16T03:11:18;101129.56;;;4.06;75.45
54806;BME280;62866;55.776;37.496;2022-10-16T03:13:43;101127.84;;;4.05;76.08
54806;BME280;62866;55.776;37.496;2022-10-16T03:16:09;101137.59;;;4.04;75.82
54806;BME280;62866;55.776;37.496;2022-10-16T03:18:34;101134.94;;;4.04;75.95
54806;BME280;62866;55.776;37.496;2022-10-16T03:21:00;101136.00;;;4.02;75.92
54806;BME280;62866;55.776;37.496;2022-10-16T03:23:26;101135.31;;;4.00;75.66
54806;BME280;62866;55.776;37.496;2022-10-16T03:25:51;101139.66;;;4.01;75.89
54806;BME280;62866;55.776;37.496;2022-10-16T03:28:17;101134.47;;;3.99;75.78
54806;BME280;62866;55.776;37.496;2022-10-16T03:30:43;101143.34;;;3.98;75.96
54806;BME280;62866;55.776;37.496;2022-10-16T03:33:09;101139.97;;;3.96;76.18
54806;BME280;62866;55.776;37.496;2022-10-16T03:35:34;101140.91;;;3.95;76.12
54806;BME280;62866;55.776;37.496;2022-10-16T03:38:00;101148.66;;;3.98;75.52
54806;BME280;62866;55.776;37.496;2022-10-16T03:40:26;101149.38;;;4.00;75.94
54806;BME280;62866;55.776;37.496;2022-10-16T03:42:52;101146.84;;;3.99;76.37
54806;BME280;62866;55.776;37.496;2022-10-16T03:45:20;101146.00;;;3.98;76.13
54806;BME280;62866;55.776;37.496;2022-10-16T03:47:45;101142.72;;;3.95;76.00
54806;BME280;62866;55.776;37.496;2022-10-16T03:50:12;101144.31;;;3.97;76.10
54806;BME280;62866;55.776;37.496;2022-10-16T03:52:38;101139.88;;;3.98;76.46
54806;BME280;62866;55.776;37.496;2022-10-16T03:55:03;101147.91;;;3.96;76.08
54806;BME280;62866;55.776;37.496;2022-10-16T03:57:29;101150.44;;;3.98;76.20
54806;BME280;62866;55.776;37.496;2022-10-16T03:59:54;101142.00;;;3.93;75.90
54806;BME280;62866;55.776;37.496;2022-10-16T04:02:20;101145.25;;;3.96;76.46
54806;BME280;62866;55.776;37.496;2022-10-16T04:04:45;101147.91;;;3.96;76.54
54806;BME280;62866;55.776;37.496;2022-10-16T04:07:11;101152.47;;;3.94;76.29
54806;BME280;62866;55.776;37.496;2022-10-16T04:09:36;101143.81;;;3.92;76.45
54806;BME280;62866;55.776;37.496;2022-10-16T04:12:02;101150.06;;;3.91;76.39
54806;BME280;62866;55.776;37.496;2022-10-16T04:14:28;101146.22;;;3.95;76.58
54806;BME280;62866;55.776;37.496;2022-10-16T04:16:53;101141.88;;;3.94;76.43
54806;BME280;62866;55.776;37.496;2022-10-16T04:19:19;101151.19;;;4.00;76.74
54806;BME280;62866;55.776;37.496;2022-10-16T04:21:44;101153.72;;;4.01;76.57
54806;BME280;62866;55.776;37.496;2022-10-16T04:24:10;101155.38;;;4.02;76.45
54806;BME280;62866;55.776;37.496;2022-10-16T04:26:37;101142.28;;;4.01;76.55
54806;BME280;62866;55.776;37.496;2022-10-16T04:29:02;101157.72;;;4.07;76.36
54806;BME280;62866;55.776;37.496;2022-10-16T04:31:28;101159.41;;;4.08;76.52
54806;BME280;62866;55.776;37.496;2022-10-16T04:33:53;101157.34;;;4.11;76.09
54806;BME280;62866;55.776;37.496;2022-10-16T04:36:19;101165.94;;;4.15;76.25
54806;BME280;62866;55.776;37.496;2022-10-16T04:38:44;101157.53;;;4.21;76.39
54806;BME280;62866;55.776;37.496;2022-10-16T04:41:10;101154.97;;;4.19;75.86
54806;BME280;62866;55.776;37.496;2022-10-16T04:43:35;101161.53;;;4.27;76.28
54806;BME280;62866;55.776;37.496;2022-10-16T04:46:01;101168.28;;;4.31;75.71
54806;BME280;62866;55.776;37.496;2022-10-16T04:48:27;101165.41;;;4.34;75.28
54806;BME280;62866;55.776;37.496;2022-10-16T04:50:52;101163.88;;;4.42;75.51
54806;BME280;62866;55.776;37.496;2022-10-16T04:53:18;101164.00;;;4.52;75.62
54806;BME280;62866;55.776;37.496;2022-10-16T04:55:43;101168.75;;;4.60;74.59
54806;BME280;62866;55.776;37.496;2022-10-16T04:58:09;101166.84;;;4.95;74.25
54806;BME280;62866;55.776;37.496;2022-10-16T05:00:35;101176.06;;;5.36;73.49
54806;BME280;62866;55.776;37.496;2022-10-16T05:03:01;101175.69;;;5.51;73.29
54806;BME280;62866;55.776;37.496;2022-10-16T05:05:27;101164.00;;;5.97;72.39
54806;BME280;62866;55.776;37.496;2022-10-16T05:07:53;101171.50;;;6.56;70.74
54806;BME280;62866;55.776;37.496;2022-10-16T05:10:19;101177.84;;;7.46;68.80
54806;BME280;62866;55.776;37.496;2022-10-16T05:12:44;101170.72;;;7.86;67.02
54806;BME280;62866;55.776;37.496;2022-10-16T05:15:10;101166.38;;;8.05;66.74
54806;BME280;62866;55.776;37.496;2022-10-16T05:17:35;101170.31;;;8.29;65.81
54806;BME280;62866;55.776;37.496;2022-10-16T05:20:01;101168.53;;;8.40;65.45
54806;BME280;62866;55.776;37.496;2022-10-16T05:22:27;101168.13;;;8.44;65.18
54806;BME280;62866;55.776;37.496;2022-10-16T05:24:52;101169.22;;;8.51;64.86
54806;BME280;62866;55.776;37.496;2022-10-16T05:27:18;101180.50;;;9.38;63.21
54806;BME280;62866;55.776;37.496;2022-10-16T05:29:47;101177.41;;;10.15;61.59
54806;BME280;62866;55.776;37.496;2022-10-16T05:32:14;101183.53;;;9.80;61.90
54806;BME280;62866;55.776;37.496;2022-10-16T05:34:39;101175.03;;;9.67;62.19
54806;BME280;62866;55.776;37.496;2022-10-16T05:37:05;101183.81;;;9.60;62.18
54806;BME280;62866;55.776;37.496;2022-10-16T05:39:31;101185.66;;;9.49;61.87
54806;BME280;62866;55.776;37.496;2022-10-16T05:41:56;101178.25;;;8.97;62.81
54806;BME280;62866;55.776;37.496;2022-10-16T05:44:22;101184.44;;;8.88;63.67
54806;BME280;62866;55.776;37.496;2022-10-16T05:46:47;101187.44;;;9.22;62.55
54806;BME280;62866;55.776;37.496;2022-10-16T05:49:13;101185.28;;;8.88;62.92
54806;BME280;62866;55.776;37.496;2022-10-16T05:51:38;101186.47;;;8.66;63.43
54806;BME280;62866;55.776;37.496;2022-10-16T05:54:04;101178.78;;;8.44;63.58
54806;BME280;62866;55.776;37.496;2022-10-16T05:56:29;101189.69;;;8.31;63.41
54806;BME280;62866;55.776;37.496;2022-10-16T05:58:55;101186.72;;;8.25;63.34
54806;BME280;62866;55.776;37.496;2022-10-16T06:01:21;101191.53;;;8.50;62.96
54806;BME280;62866;55.776;37.496;2022-10-16T06:03:52;101193.50;;;8.48;63.00
54806;BME280;62866;55.776;37.496;2022-10-16T06:06:22;101193.09;;;8.53;63.72
54806;BME280;62866;55.776;37.496;2022-10-16T06:08:49;101190.38;;;8.72;63.83
54806;BME280;62866;55.776;37.496;2022-10-16T06:11:17;101204.47;;;9.58;62.64
54806;BME280;62866;55.776;37.496;2022-10-16T06:13:43;101192.38;;;10.79;59.64
54806;BME280;62866;55.776;37.496;2022-10-16T06:16:12;101188.09;;;12.63;56.00
54806;BME280;62866;55.776;37.496;2022-10-16T06:18:38;101183.44;;;14.45;52.27
54806;BME280;62866;55.776;37.496;2022-10-16T06:21:09;101187.69;;;16.45;49.09
54806;BME280;62866;55.776;37.496;2022-10-16T06:23:35;101180.41;;;17.85;46.30
54806;BME280;62866;55.776;37.496;2022-10-16T06:26:11;101191.22;;;19.18;43.87
54806;BME280;62866;55.776;37.496;2022-10-16T06:28:38;101194.09;;;19.63;42.54
54806;BME280;62866;55.776;37.496;2022-10-16T06:31:04;101192.81;;;19.59;43.06
54806;BME280;62866;55.776;37.496;2022-10-16T06:33:31;101193.28;;;19.36;43.18
54806;BME280;62866;55.776;37.496;2022-10-16T06:36:05;101192.19;;;19.63;43.31
54806;BME280;62866;55.776;37.496;2022-10-16T06:38:31;101203.53;;;20.05;49.58
54806;BME280;62866;55.776;37.496;2022-10-16T06:40:57;101195.75;;;20.53;41.07
54806;BME280;62866;55.776;37.496;2022-10-16T06:43:22;101192.94;;;21.59;38.08
54806;BME280;62866;55.776;37.496;2022-10-16T06:45:55;101198.47;;;21.28;38.92
54806;BME280;62866;55.776;37.496;2022-10-16T06:48:22;101192.41;;;21.01;37.83
54806;BME280;62866;55.776;37.496;2022-10-16T06:51:16;101200.25;;;20.34;40.32
54806;BME280;62866;55.776;37.496;2022-10-16T06:53:47;101199.81;;;19.15;41.11
54806;BME280;62866;55.776;37.496;2022-10-16T06:56:22;101202.72;;;18.87;40.44
54806;BME280;62866;55.776;37.496;2022-10-16T06:58:49;101201.88;;;18.87;40.47
54806;BME280;62866;55.776;37.496;2022-10-16T07:01:16;101205.72;;;20.21;39.46
54806;BME280;62866;55.776;37.496;2022-10-16T07:03:43;101203.06;;;21.34;36.74
54806;BME280;62866;55.776;37.496;2022-10-16T07:06:11;101208.59;;;22.00;36.18
54806;BME280;62866;55.776;37.496;2022-10-16T07:08:38;101204.50;;;22.81;35.23
54806;BME280;62866;55.776;37.496;2022-10-16T07:11:07;101200.38;;;23.13;34.43
54806;BME280;62866;55.776;37.496;2022-10-16T07:13:37;101199.06;;;23.39;33.27
54806;BME280;62866;55.776;37.496;2022-10-16T07:16:06;101207.25;;;23.27;33.20
54806;BME280;62866;55.776;37.496;2022-10-16T07:18:33;101208.47;;;23.55;32.89
54806;BME280;62866;55.776;37.496;2022-10-16T07:21:09;101204.72;;;22.79;34.01
54806;BME280;62866;55.776;37.496;2022-10-16T07:23:35;101210.91;;;22.15;34.96
54806;BME280;62866;55.776;37.496;2022-10-16T07:26:02;101205.38;;;22.03;35.72
54806;BME280;62866;55.776;37.496;2022-10-16T07:28:28;101207.88;;;22.64;34.42
54806;BME280;62866;55.776;37.496;2022-10-16T07:30:54;101207.19;;;23.86;32.78
54806;BME280;62866;55.776;37.496;2022-10-16T07:33:20;101202.34;;;25.06;31.19
54806;BME280;62866;55.776;37.496;2022-10-16T07:35:52;101208.75;;;26.11;30.14
54806;BME280;62866;55.776;37.496;2022-10-16T07:38:18;101203.16;;;26.81;29.19
54806;BME280;62866;55.776;37.496;2022-10-16T07:40:44;101198.50;;;26.81;28.32
54806;BME280;62866;55.776;37.496;2022-10-16T07:43:10;101199.97;;;25.48;29.66
54806;BME280;62866;55.776;37.496;2022-10-16T07:45:36;101197.06;;;25.16;30.01
54806;BME280;62866;55.776;37.496;2022-10-16T07:48:01;101208.16;;;24.31;30.71
54806;BME280;62866;55.776;37.496;2022-10-16T07:50:27;101212.50;;;23.17;32.28
54806;BME280;62866;55.776;37.496;2022-10-16T07:52:52;101206.06;;;22.17;33.03
54806;BME280;62866;55.776;37.496;2022-10-16T07:55:18;101215.72;;;21.22;34.47
54806;BME280;62866;55.776;37.496;2022-10-16T07:57:43;101212.63;;;20.24;35.51
54806;BME280;62866;55.776;37.496;2022-10-16T08:00:09;101221.53;;;19.93;36.15
54806;BME280;62866;55.776;37.496;2022-10-16T08:02:39;101213.75;;;19.25;36.60
54806;BME280;62866;55.776;37.496;2022-10-16T08:05:06;101214.59;;;18.86;36.79
54806;BME280;62866;55.776;37.496;2022-10-16T08:07:31;101207.88;;;18.49;37.04
54806;BME280;62866;55.776;37.496;2022-10-16T08:09:57;101213.91;;;17.84;37.93
54806;BME280;62866;55.776;37.496;2022-10-16T08:12:24;101213.94;;;17.56;38.25
54806;BME280;62866;55.776;37.496;2022-10-16T08:14:50;101207.22;;;17.45;38.65
54806;BME280;62866;55.776;37.496;2022-10-16T08:17:15;101203.19;;;17.35;38.66
54806;BME280;62866;55.776;37.496;2022-10-16T08:19:47;101206.41;;;17.79;38.23
54806;BME280;62866;55.776;37.496;2022-10-16T08:22:15;101202.34;;;18.16;37.91
54806;BME280;62866;55.776;37.496;2022-10-16T08:24:41;101203.13;;;19.24;36.63
54806;BME280;62866;55.776;37.496;2022-10-16T08:27:07;101200.53;;;20.58;35.24
54806;BME280;62866;55.776;37.496;2022-10-16T08:29:34;101208.34;;;22.02;33.40
54806;BME280;62866;55.776;37.496;2022-10-16T08:31:59;101196.25;;;22.57;32.79
54806;BME280;62866;55.776;37.496;2022-10-16T08:34:25;101202.88;;;22.50;32.60
54806;BME280;62866;55.776;37.496;2022-10-16T08:36:53;101194.75;;;22.31;32.54
54806;BME280;62866;55.776;37.496;2022-10-16T08:39:19;101192.44;;;21.44;33.85
54806;BME280;62866;55.776;37.496;2022-10-16T08:47:10;101193.75;;;18.87;36.30
54806;BME280;62866;55.776;37.496;2022-10-16T08:49:41;101199.13;;;17.80;37.45
54806;BME280;62866;55.776;37.496;2022-10-16T08:52:12;101200.81;;;17.19;38.49
54806;BME280;62866;55.776;37.496;2022-10-16T08:54:44;101188.16;;;17.26;38.28
54806;BME280;62866;55.776;37.496;2022-10-16T08:57:14;101199.28;;;17.37;38.13
54806;BME280;62866;55.776;37.496;2022-10-16T08:59:41;101194.59;;;17.25;38.46
54806;BME280;62866;55.776;37.496;2022-10-16T09:02:40;101183.47;;;17.06;38.58
54806;BME280;62866;55.776;37.496;2022-10-16T09:08:06;101195.38;;;15.03;41.95
54806;BME280;62866;55.776;37.496;2022-10-16T09:13:31;101178.88;;;14.15;42.90
54806;BME280;62866;55.776;37.496;2022-10-16T09:16:29;101198.50;;;13.61;43.98
54806;BME280;62866;55.776;37.496;2022-10-16T09:21:40;101179.84;;;12.88;45.67
54806;BME280;62866;55.776;37.496;2022-10-16T09:24:33;101181.19;;;12.84;45.16
54806;BME280;62866;55.776;37.496;2022-10-16T09:26:59;101201.16;;;12.82;46.41
54806;BME280;62866;55.776;37.496;2022-10-16T09:29:24;101170.97;;;12.64;46.97
54806;BME280;62866;55.776;37.496;2022-10-16T09:31:50;101187.06;;;12.55;47.02
54806;BME280;62866;55.776;37.496;2022-10-16T09:34:36;101192.78;;;12.44;46.31
54806;BME280;62866;55.776;37.496;2022-10-16T09:37:09;101183.19;;;12.42;47.06
54806;BME280;62866;55.776;37.496;2022-10-16T09:39:45;101178.16;;;12.47;46.65
54806;BME280;62866;55.776;37.496;2022-10-16T09:42:23;101175.66;;;12.37;46.62
54806;BME280;62866;55.776;37.496;2022-10-16T09:44:53;101181.53;;;12.41;46.96
54806;BME280;62866;55.776;37.496;2022-10-16T09:47:23;101186.56;;;12.44;46.84
54806;BME280;62866;55.776;37.496;2022-10-16T09:50:03;101174.47;;;12.48;46.61
54806;BME280;62866;55.776;37.496;2022-10-16T09:52:31;101178.34;;;12.37;46.88
54806;BME280;62866;55.776;37.496;2022-10-16T09:55:23;101175.16;;;12.34;46.85
54806;BME280;62866;55.776;37.496;2022-10-16T09:57:55;101161.91;;;12.24;46.99
54806;BME280;62866;55.776;37.496;2022-10-16T10:00:22;101161.06;;;12.24;47.33
54806;BME280;62866;55.776;37.496;2022-10-16T10:02:48;101156.06;;;12.29;47.00
54806;BME280;62866;55.776;37.496;2022-10-16T10:07:57;101169.28;;;12.30;47.36
54806;BME280;62866;55.776;37.496;2022-10-16T10:10:29;101163.59;;;12.33;47.37
54806;BME280;62866;55.776;37.496;2022-10-16T10:12:56;101158.72;;;12.29;47.56
54806;BME280;62866;55.776;37.496;2022-10-16T10:15:23;101157.38;;;12.16;48.44
54806;BME280;62866;55.776;37.496;2022-10-16T10:17:54;101160.72;;;12.19;47.38
54806;BME280;62866;55.776;37.496;2022-10-16T10:20:32;101157.22;;;12.26;47.82
54806;BME280;62866;55.776;37.496;2022-10-16T10:23:21;101162.06;;;12.31;47.52
54806;BME280;62866;55.776;37.496;2022-10-16T10:37:09;101151.81;;;12.02;47.96
54806;BME280;62866;55.776;37.496;2022-10-16T10:39:47;101156.53;;;12.16;48.20
54806;BME280;62866;55.776;37.496;2022-10-16T10:42:36;101153.34;;;12.21;47.86
54806;BME280;62866;55.776;37.496;2022-10-16T10:55:43;101140.44;;;12.08;48.74
54806;BME280;62866;55.776;37.496;2022-10-16T11:01:13;101139.25;;;12.02;49.16
54806;BME280;62866;55.776;37.496;2022-10-16T11:04:03;101143.63;;;12.03;48.88
54806;BME280;62866;55.776;37.496;2022-10-16T11:07:03;101141.25;;;12.00;49.64
54806;BME280;62866;55.776;37.496;2022-10-16T11:09:43;101138.41;;;11.94;49.25
54806;BME280;62866;55.776;37.496;2022-10-16T11:13:04;101139.56;;;11.91;49.53
54806;BME280;62866;55.776;37.496;2022-10-16T11:17:55;101140.09;;;11.95;49.53
54806;BME280;62866;55.776;37.496;2022-10-16T11:20:33;101140.09;;;11.95;49.64
54806;BME280;62866;55.776;37.496;2022-10-16T11:23:25;101129.38;;;11.95;49.64
54806;BME280;62866;55.776;37.496;2022-10-16T11:25:54;101143.41;;;11.97;49.79
54806;BME280;62866;55.776;37.496;2022-10-16T11:28:25;101130.69;;;11.99;49.94
54806;BME280;62866;55.776;37.496;2022-10-16T11:30:57;101132.22;;;12.01;49.54
54806;BME280;62866;55.776;37.496;2022-10-16T11:35:54;101117.63;;;11.96;49.92
54806;BME280;62866;55.776;37.496;2022-10-16T11:41:24;101125.50;;;11.97;50.08
54806;BME280;62866;55.776;37.496;2022-10-16T11:53:00;101124.03;;;12.11;49.76
54806;BME280;62866;55.776;37.496;2022-10-16T11:55:39;101119.81;;;12.08;49.61
54806;BME280;62866;55.776;37.496;2022-10-16T11:58:36;101129.03;;;12.06;50.25
54806;BME280;62866;55.776;37.496;2022-10-16T12:08:59;101131.38;;;12.01;49.94
54806;BME280;62866;55.776;37.496;2022-10-16T12:11:34;101133.53;;;11.97;50.07
54806;BME280;62866;55.776;37.496;2022-10-16T12:14:21;101124.66;;;11.97;49.93
54806;BME280;62866;55.776;37.496;2022-10-16T12:17:03;101093.66;;;11.86;49.82
54806;BME280;62866;55.776;37.496;2022-10-16T12:19:31;101106.56;;;11.99;50.06
54806;BME280;62866;55.776;37.496;2022-10-16T12:22:02;101100.34;;;11.90;49.93
54806;BME280;62866;55.776;37.496;2022-10-16T12:24:41;101107.91;;;11.95;50.07
54806;BME280;62866;55.776;37.496;2022-10-16T12:27:27;101101.03;;;11.92;50.11
54806;BME280;62866;55.776;37.496;2022-10-16T12:30:00;101101.03;;;12.00;50.15
54806;BME280;62866;55.776;37.496;2022-10-16T12:34:56;101094.38;;;12.04;49.86
54806;BME280;62866;55.776;37.496;2022-10-16T12:37:24;101106.94;;;12.04;50.44
54806;BME280;62866;55.776;37.496;2022-10-16T12:39:51;101111.94;;;11.99;50.44
54806;BME280;62866;55.776;37.496;2022-10-16T12:42:38;101093.84;;;11.93;49.99
54806;BME280;62866;55.776;37.496;2022-10-16T12:45:30;101102.03;;;11.91;50.80
54806;BME280;62866;55.776;37.496;2022-10-16T12:47:57;101099.72;;;11.88;50.26
54806;BME280;62866;55.776;37.496;2022-10-16T12:50:28;101096.84;;;11.90;50.69
54806;BME280;62866;55.776;37.496;2022-10-16T12:52:56;101097.03;;;11.88;50.78
54806;BME280;62866;55.776;37.496;2022-10-16T12:55:22;101089.16;;;11.87;50.93
54806;BME280;62866;55.776;37.496;2022-10-16T13:21:36;101109.66;;;11.62;51.47
54806;BME280;62866;55.776;37.496;2022-10-16T13:24:11;101110.47;;;11.54;51.49
54806;BME280;62866;55.776;37.496;2022-10-16T13:29:24;101098.22;;;11.52;51.32
54806;BME280;62866;55.776;37.496;2022-10-16T13:31:54;101103.91;;;11.49;51.21
54806;BME280;62866;55.776;37.496;2022-10-16T13:34:21;101105.56;;;11.41;52.10
54806;BME280;62866;55.776;37.496;2022-10-16T13:36:50;101099.16;;;11.26;52.06
54806;BME280;62866;55.776;37.496;2022-10-16T13:39:27;101104.81;;;11.23;52.51
54806;BME280;62866;55.776;37.496;2022-10-16T13:42:10;101102.78;;;11.17;52.81
54806;BME280;62866;55.776;37.496;2022-10-16T13:44:43;101101.06;;;11.08;53.06
54806;BME280;62866;55.776;37.496;2022-10-16T13:47:19;101102.84;;;10.99;52.99
54806;BME280;62866;55.776;37.496;2022-10-16T13:49:45;101100.13;;;10.91;53.54
54806;BME280;62866;55.776;37.496;2022-10-16T13:52:21;101094.59;;;10.85;53.52
54806;BME280;62866;55.776;37.496;2022-10-16T13:54:47;101094.00;;;10.73;53.27
54806;BME280;62866;55.776;37.496;2022-10-16T13:57:14;101096.84;;;10.72;53.65
54806;BME280;62866;55.776;37.496;2022-10-16T13:59:40;101091.91;;;10.59;54.03
54806;BME280;62866;55.776;37.496;2022-10-16T14:05:02;101098.97;;;10.42;54.30
54806;BME280;62866;55.776;37.496;2022-10-16T14:07:31;101104.97;;;10.36;54.77
54806;BME280;62866;55.776;37.496;2022-10-16T14:10:05;101107.56;;;10.28;55.15
54806;BME280;62866;55.776;37.496;2022-10-16T14:12:31;101089.19;;;10.15;55.39
54806;BME280;62866;55.776;37.496;2022-10-16T14:14:58;101110.44;;;10.17;55.42
54806;BME280;62866;55.776;37.496;2022-10-16T14:19:55;101099.13;;;10.05;55.85
54806;BME280;62866;55.776;37.496;2022-10-16T14:24:55;101099.22;;;9.96;55.91
54806;BME280;62866;55.776;37.496;2022-10-16T14:27:35;101105.63;;;9.85;56.03
54806;BME280;62866;55.776;37.496;2022-10-16T14:30:17;101095.84;;;9.76;56.89
54806;BME280;62866;55.776;37.496;2022-10-16T14:32:58;101099.13;;;9.70;56.42
54806;BME280;62866;55.776;37.496;2022-10-16T14:35:36;101086.28;;;9.56;56.38
54806;BME280;62866;55.776;37.496;2022-10-16T14:38:03;101099.03;;;9.62;57.25
54806;BME280;62866;55.776;37.496;2022-10-16T14:40:35;101103.13;;;9.56;57.40
54806;BME280;62866;55.776;37.496;2022-10-16T14:43:03;101099.69;;;9.46;57.20
54806;BME280;62866;55.776;37.496;2022-10-16T14:45:34;101102.91;;;9.49;57.69
54806;BME280;62866;55.776;37.496;2022-10-16T14:48:05;101106.56;;;9.48;57.59
54806;BME280;62866;55.776;37.496;2022-10-16T14:50:31;101088.63;;;9.41;57.20
54806;BME280;62866;55.776;37.496;2022-10-16T14:52:58;101096.63;;;9.41;57.67
54806;BME280;62866;55.776;37.496;2022-10-16T14:55:24;101091.19;;;9.33;57.71
54806;BME280;62866;55.776;37.496;2022-10-16T14:57:50;101101.72;;;9.34;58.25
54806;BME280;62866;55.776;37.496;2022-10-16T15:00:19;101089.69;;;9.21;57.89
54806;BME280;62866;55.776;37.496;2022-10-16T15:02:47;101097.84;;;9.29;58.07
54806;BME280;62866;55.776;37.496;2022-10-16T15:05:17;101109.63;;;9.26;57.91